sensor_id;sensor_type;location;lat;lon;timestamp;P1;durP1;ratioP1;P2;durP2;ratioP2
69789;SDS011;57064;52.046;4.800;2023-02-24T00:01:31;12.23;;;2.92;;
69789;SDS011;57064;52.046;4.800;2023-02-24T00:04:02;10.27;;;2.55;;
69789;SDS011;57064;52.046;4.800;2023-02-24T00:06:34;12.32;;;2.65;;
69789;SDS011;57064;52.046;4.800;2023-02-24T00:09:06;8.55;;;2.00;;
69789;SDS011;57064;52.046;4.800;2023-02-24T00:11:38;29.00;;;3.20;;
69789;SDS011;57064;52.046;4.800;2023-02-24T00:14:33;10.35;;;2.80;;
69789;SDS011;57064;52.046;4.800;2023-02-24T00:17:01;13.45;;;2.50;;
69789;SDS011;57064;52.046;4.800;2023-02-24T00:19:30;13.70;;;3.15;;
69789;SDS011;57064;52.046;4.800;2023-02-24T00:21:59;15.02;;;2.85;;
69789;SDS011;57064;52.046;4.800;2023-02-24T00:24:26;9.15;;;2.50;;
69789;SDS011;57064;52.046;4.800;2023-02-24T00:26:53;6.03;;;1.83;;
69789;SDS011;57064;52.046;4.800;2023-02-24T00:29:23;12.30;;;2.35;;
69789;SDS011;57064;52.046;4.800;2023-02-24T00:31:53;11.85;;;2.10;;
69789;SDS011;57064;52.046;4.800;2023-02-24T00:34:27;9.13;;;2.38;;
69789;SDS011;57064;52.046;4.800;2023-02-24T00:36:54;13.35;;;2.25;;
69789;SDS011;57064;52.046;4.800;2023-02-24T00:39:21;9.05;;;2.38;;
69789;SDS011;57064;52.046;4.800;2023-02-24T00:41:57;18.17;;;2.40;;
69789;SDS011;57064;52.046;4.800;2023-02-24T00:44:28;16.73;;;2.20;;
69789;SDS011;57064;52.046;4.800;2023-02-24T00:46:58;11.57;;;1.88;;
69789;SDS011;57064;52.046;4.800;2023-02-24T00:49:26;10.82;;;2.25;;
69789;SDS011;57064;52.046;4.800;2023-02-24T00:51:53;15.23;;;2.38;;
69789;SDS011;57064;52.046;4.800;2023-02-24T00:54:20;7.68;;;1.67;;
69789;SDS011;57064;52.046;4.800;2023-02-24T00:56:49;8.75;;;2.30;;
69789;SDS011;57064;52.046;4.800;2023-02-24T00:59:15;8.85;;;1.55;;
69789;SDS011;57064;52.046;4.800;2023-02-24T01:01:43;11.18;;;1.58;;
69789;SDS011;57064;52.046;4.800;2023-02-24T01:04:10;12.63;;;2.45;;
69789;SDS011;57064;52.046;4.800;2023-02-24T01:06:38;10.57;;;2.25;;
69789;SDS011;57064;52.046;4.800;2023-02-24T01:09:13;7.53;;;2.10;;
69789;SDS011;57064;52.046;4.800;2023-02-24T01:11:42;12.70;;;2.08;;
69789;SDS011;57064;52.046;4.800;2023-02-24T01:14:29;9.48;;;1.63;;
69789;SDS011;57064;52.046;4.800;2023-02-24T01:16:56;10.98;;;1.90;;
69789;SDS011;57064;52.046;4.800;2023-02-24T01:19:26;12.70;;;2.40;;
69789;SDS011;57064;52.046;4.800;2023-02-24T01:21:55;8.80;;;2.13;;
69789;SDS011;57064;52.046;4.800;2023-02-24T01:24:23;11.95;;;1.85;;
69789;SDS011;57064;52.046;4.800;2023-02-24T01:26:49;7.50;;;1.90;;
69789;SDS011;57064;52.046;4.800;2023-02-24T01:29:16;6.32;;;1.85;;
69789;SDS011;57064;52.046;4.800;2023-02-24T01:31:42;10.23;;;2.60;;
69789;SDS011;57064;52.046;4.800;2023-02-24T01:34:09;8.18;;;1.70;;
69789;SDS011;57064;52.046;4.800;2023-02-24T01:36:37;7.82;;;2.03;;
69789;SDS011;57064;52.046;4.800;2023-02-24T01:39:05;10.68;;;2.15;;
69789;SDS011;57064;52.046;4.800;2023-02-24T01:41:35;8.45;;;1.65;;
69789;SDS011;57064;52.046;4.800;2023-02-24T01:46:38;7.47;;;1.30;;
69789;SDS011;57064;52.046;4.800;2023-02-24T01:51:59;9.23;;;3.13;;
69789;SDS011;57064;52.046;4.800;2023-02-24T01:54:33;13.30;;;3.42;;
69789;SDS011;57064;52.046;4.800;2023-02-24T01:57:07;15.00;;;2.83;;
69789;SDS011;57064;52.046;4.800;2023-02-24T01:59:34;7.90;;;2.22;;
69789;SDS011;57064;52.046;4.800;2023-02-24T02:02:03;10.00;;;2.72;;
69789;SDS011;57064;52.046;4.800;2023-02-24T02:04:39;9.30;;;1.77;;
69789;SDS011;57064;52.046;4.800;2023-02-24T02:07:16;11.38;;;2.60;;
69789;SDS011;57064;52.046;4.800;2023-02-24T02:09:45;6.47;;;1.60;;
69789;SDS011;57064;52.046;4.800;2023-02-24T02:12:13;13.45;;;2.20;;
69789;SDS011;57064;52.046;4.800;2023-02-24T02:14:43;6.45;;;2.03;;
69789;SDS011;57064;52.046;4.800;2023-02-24T02:17:19;6.22;;;1.83;;
69789;SDS011;57064;52.046;4.800;2023-02-24T02:25:49;14.55;;;2.30;;
69789;SDS011;57064;52.046;4.800;2023-02-24T02:31:09;9.07;;;1.92;;
69789;SDS011;57064;52.046;4.800;2023-02-24T02:36:52;8.35;;;2.10;;
69789;SDS011;57064;52.046;4.800;2023-02-24T02:39:34;16.75;;;2.08;;
69789;SDS011;57064;52.046;4.800;2023-02-24T02:42:28;5.47;;;1.88;;
69789;SDS011;57064;52.046;4.800;2023-02-24T02:47:49;6.65;;;2.13;;
69789;SDS011;57064;52.046;4.800;2023-02-24T02:58:54;7.57;;;2.20;;
69789;SDS011;57064;52.046;4.800;2023-02-24T03:01:23;5.30;;;1.95;;
69789;SDS011;57064;52.046;4.800;2023-02-24T03:03:55;9.63;;;2.45;;
69789;SDS011;57064;52.046;4.800;2023-02-24T03:06:32;21.80;;;3.22;;
69789;SDS011;57064;52.046;4.800;2023-02-24T03:09:13;9.32;;;2.15;;
69789;SDS011;57064;52.046;4.800;2023-02-24T03:11:45;4.75;;;1.58;;
69789;SDS011;57064;52.046;4.800;2023-02-24T03:14:16;8.55;;;1.90;;
69789;SDS011;57064;52.046;4.800;2023-02-24T03:16:47;6.85;;;1.58;;
69789;SDS011;57064;52.046;4.800;2023-02-24T03:19:19;4.72;;;1.50;;
69789;SDS011;57064;52.046;4.800;2023-02-24T03:21:51;9.02;;;1.83;;
69789;SDS011;57064;52.046;4.800;2023-02-24T03:24:25;6.95;;;1.83;;
69789;SDS011;57064;52.046;4.800;2023-02-24T03:26:54;13.07;;;2.25;;
69789;SDS011;57064;52.046;4.800;2023-02-24T03:29:48;6.63;;;1.42;;
69789;SDS011;57064;52.046;4.800;2023-02-24T03:32:25;8.35;;;1.52;;
69789;SDS011;57064;52.046;4.800;2023-02-24T03:37:29;9.38;;;1.27;;
69789;SDS011;57064;52.046;4.800;2023-02-24T03:39:58;4.97;;;1.33;;
69789;SDS011;57064;52.046;4.800;2023-02-24T03:42:32;15.95;;;2.22;;
69789;SDS011;57064;52.046;4.800;2023-02-24T03:44:59;5.32;;;1.20;;
69789;SDS011;57064;52.046;4.800;2023-02-24T03:47:26;7.55;;;1.27;;
69789;SDS011;57064;52.046;4.800;2023-02-24T03:49:52;7.95;;;1.70;;
69789;SDS011;57064;52.046;4.800;2023-02-24T03:55:06;9.57;;;1.67;;
69789;SDS011;57064;52.046;4.800;2023-02-24T04:00:37;11.70;;;1.75;;
69789;SDS011;57064;52.046;4.800;2023-02-24T04:03:19;9.27;;;2.20;;
69789;SDS011;57064;52.046;4.800;2023-02-24T04:06:18;5.97;;;1.40;;
69789;SDS011;57064;52.046;4.800;2023-02-24T04:14:20;7.32;;;1.23;;
69789;SDS011;57064;52.046;4.800;2023-02-24T04:16:57;8.90;;;1.77;;
69789;SDS011;57064;52.046;4.800;2023-02-24T04:19:32;7.57;;;1.08;;
69789;SDS011;57064;52.046;4.800;2023-02-24T04:22:03;3.92;;;1.52;;
69789;SDS011;57064;52.046;4.800;2023-02-24T04:24:33;3.63;;;1.10;;
69789;SDS011;57064;52.046;4.800;2023-02-24T04:27:00;5.35;;;1.48;;
69789;SDS011;57064;52.046;4.800;2023-02-24T04:29:31;4.97;;;0.90;;
69789;SDS011;57064;52.046;4.800;2023-02-24T04:32:05;5.28;;;1.02;;
69789;SDS011;57064;52.046;4.800;2023-02-24T04:34:33;6.70;;;1.40;;
69789;SDS011;57064;52.046;4.800;2023-02-24T04:37:00;8.32;;;1.75;;
69789;SDS011;57064;52.046;4.800;2023-02-24T04:39:26;9.30;;;1.38;;
69789;SDS011;57064;52.046;4.800;2023-02-24T04:41:54;4.97;;;0.85;;
69789;SDS011;57064;52.046;4.800;2023-02-24T04:44:22;5.63;;;1.75;;
69789;SDS011;57064;52.046;4.800;2023-02-24T04:46:49;9.02;;;1.17;;
69789;SDS011;57064;52.046;4.800;2023-02-24T04:49:16;9.70;;;1.30;;
69789;SDS011;57064;52.046;4.800;2023-02-24T04:51:43;7.90;;;1.27;;
69789;SDS011;57064;52.046;4.800;2023-02-24T04:54:11;5.13;;;0.88;;
69789;SDS011;57064;52.046;4.800;2023-02-24T04:56:41;7.70;;;1.50;;
69789;SDS011;57064;52.046;4.800;2023-02-24T04:59:15;4.72;;;0.80;;
69789;SDS011;57064;52.046;4.800;2023-02-24T05:01:42;3.97;;;0.88;;
69789;SDS011;57064;52.046;4.800;2023-02-24T05:04:09;4.13;;;0.80;;
69789;SDS011;57064;52.046;4.800;2023-02-24T05:06:38;2.58;;;0.80;;
69789;SDS011;57064;52.046;4.800;2023-02-24T05:09:07;5.57;;;1.20;;
69789;SDS011;57064;52.046;4.800;2023-02-24T05:11:39;5.50;;;1.02;;
69789;SDS011;57064;52.046;4.800;2023-02-24T05:14:07;5.97;;;1.02;;
69789;SDS011;57064;52.046;4.800;2023-02-24T05:16:43;4.45;;;1.30;;
69789;SDS011;57064;52.046;4.800;2023-02-24T05:19:12;6.93;;;0.95;;
69789;SDS011;57064;52.046;4.800;2023-02-24T05:22:01;6.38;;;1.10;;
69789;SDS011;57064;52.046;4.800;2023-02-24T05:24:29;6.60;;;1.35;;
69789;SDS011;57064;52.046;4.800;2023-02-24T05:26:55;5.63;;;1.17;;
69789;SDS011;57064;52.046;4.800;2023-02-24T05:29:26;10.68;;;1.52;;
69789;SDS011;57064;52.046;4.800;2023-02-24T05:31:54;5.28;;;1.40;;
69789;SDS011;57064;52.046;4.800;2023-02-24T05:34:25;5.50;;;1.15;;
69789;SDS011;57064;52.046;4.800;2023-02-24T05:36:51;7.05;;;2.47;;
69789;SDS011;57064;52.046;4.800;2023-02-24T05:39:17;7.40;;;1.60;;
69789;SDS011;57064;52.046;4.800;2023-02-24T05:41:46;6.13;;;1.27;;
69789;SDS011;57064;52.046;4.800;2023-02-24T05:44:13;8.95;;;1.92;;
69789;SDS011;57064;52.046;4.800;2023-02-24T05:46:44;11.05;;;1.45;;
69789;SDS011;57064;52.046;4.800;2023-02-24T05:49:11;9.02;;;1.33;;
69789;SDS011;57064;52.046;4.800;2023-02-24T05:51:39;8.32;;;1.52;;
69789;SDS011;57064;52.046;4.800;2023-02-24T05:54:18;4.80;;;1.20;;
69789;SDS011;57064;52.046;4.800;2023-02-24T05:56:46;5.68;;;1.77;;
69789;SDS011;57064;52.046;4.800;2023-02-24T05:59:13;3.83;;;1.10;;
69789;SDS011;57064;52.046;4.800;2023-02-24T06:01:45;3.75;;;0.75;;
69789;SDS011;57064;52.046;4.800;2023-02-24T06:04:12;7.97;;;1.23;;
69789;SDS011;57064;52.046;4.800;2023-02-24T06:06:45;4.00;;;1.08;;
69789;SDS011;57064;52.046;4.800;2023-02-24T06:09:19;6.50;;;1.15;;
69789;SDS011;57064;52.046;4.800;2023-02-24T06:11:47;5.07;;;1.42;;
69789;SDS011;57064;52.046;4.800;2023-02-24T06:14:14;5.07;;;1.23;;
69789;SDS011;57064;52.046;4.800;2023-02-24T06:16:41;4.60;;;0.93;;
69789;SDS011;57064;52.046;4.800;2023-02-24T06:19:08;7.78;;;1.35;;
69789;SDS011;57064;52.046;4.800;2023-02-24T06:21:37;8.52;;;1.83;;
69789;SDS011;57064;52.046;4.800;2023-02-24T06:24:11;10.63;;;1.75;;
69789;SDS011;57064;52.046;4.800;2023-02-24T06:26:42;13.57;;;1.73;;
69789;SDS011;57064;52.046;4.800;2023-02-24T06:29:12;7.68;;;1.60;;
69789;SDS011;57064;52.046;4.800;2023-02-24T06:31:40;6.43;;;1.30;;
69789;SDS011;57064;52.046;4.800;2023-02-24T06:34:09;7.80;;;1.70;;
69789;SDS011;57064;52.046;4.800;2023-02-24T06:36:37;4.60;;;1.33;;
69789;SDS011;57064;52.046;4.800;2023-02-24T06:39:03;7.65;;;1.73;;
69789;SDS011;57064;52.046;4.800;2023-02-24T06:41:32;6.28;;;1.85;;
69789;SDS011;57064;52.046;4.800;2023-02-24T06:43:59;6.28;;;1.70;;
69789;SDS011;57064;52.046;4.800;2023-02-24T06:46:25;5.88;;;2.67;;
69789;SDS011;57064;52.046;4.800;2023-02-24T06:48:51;8.75;;;1.75;;
69789;SDS011;57064;52.046;4.800;2023-02-24T06:51:17;8.90;;;2.53;;
69789;SDS011;57064;52.046;4.800;2023-02-24T06:53:43;12.88;;;1.80;;
69789;SDS011;57064;52.046;4.800;2023-02-24T06:58:39;9.10;;;2.03;;
69789;SDS011;57064;52.046;4.800;2023-02-24T07:01:14;4.45;;;1.70;;
69789;SDS011;57064;52.046;4.800;2023-02-24T07:03:42;8.98;;;1.90;;
69789;SDS011;57064;52.046;4.800;2023-02-24T07:06:33;4.50;;;1.65;;
69789;SDS011;57064;52.046;4.800;2023-02-24T07:09:02;4.10;;;1.95;;
69789;SDS011;57064;52.046;4.800;2023-02-24T07:11:31;6.72;;;1.83;;
69789;SDS011;57064;52.046;4.800;2023-02-24T07:13:58;8.73;;;1.95;;
69789;SDS011;57064;52.046;4.800;2023-02-24T07:16:24;6.15;;;1.98;;
69789;SDS011;57064;52.046;4.800;2023-02-24T07:19:03;9.90;;;1.95;;
69789;SDS011;57064;52.046;4.800;2023-02-24T07:21:43;5.20;;;1.60;;
69789;SDS011;57064;52.046;4.800;2023-02-24T07:24:15;6.57;;;1.85;;
69789;SDS011;57064;52.046;4.800;2023-02-24T07:27:01;4.50;;;1.45;;
69789;SDS011;57064;52.046;4.800;2023-02-24T07:29:29;8.23;;;1.85;;
69789;SDS011;57064;52.046;4.800;2023-02-24T07:32:00;8.15;;;1.92;;
69789;SDS011;57064;52.046;4.800;2023-02-24T07:34:29;6.57;;;1.88;;
69789;SDS011;57064;52.046;4.800;2023-02-24T07:36:57;11.80;;;2.25;;
69789;SDS011;57064;52.046;4.800;2023-02-24T07:39:26;8.88;;;1.75;;
69789;SDS011;57064;52.046;4.800;2023-02-24T07:41:53;7.63;;;1.30;;
69789;SDS011;57064;52.046;4.800;2023-02-24T07:44:19;7.25;;;2.05;;
69789;SDS011;57064;52.046;4.800;2023-02-24T07:46:48;6.68;;;1.60;;
69789;SDS011;57064;52.046;4.800;2023-02-24T07:49:16;14.18;;;2.58;;
69789;SDS011;57064;52.046;4.800;2023-02-24T07:51:45;11.98;;;2.20;;
69789;SDS011;57064;52.046;4.800;2023-02-24T07:54:16;8.35;;;2.15;;
69789;SDS011;57064;52.046;4.800;2023-02-24T07:56:45;4.78;;;1.73;;
69789;SDS011;57064;52.046;4.800;2023-02-24T07:59:24;5.88;;;1.92;;
69789;SDS011;57064;52.046;4.800;2023-02-24T08:01:52;7.43;;;1.45;;
69789;SDS011;57064;52.046;4.800;2023-02-24T08:04:21;6.63;;;2.05;;
69789;SDS011;57064;52.046;4.800;2023-02-24T08:06:51;7.97;;;1.63;;
69789;SDS011;57064;52.046;4.800;2023-02-24T08:09:21;6.28;;;2.30;;
69789;SDS011;57064;52.046;4.800;2023-02-24T08:12:07;6.40;;;1.55;;
69789;SDS011;57064;52.046;4.800;2023-02-24T08:14:34;6.78;;;2.08;;
69789;SDS011;57064;52.046;4.800;2023-02-24T08:17:08;11.02;;;2.25;;
69789;SDS011;57064;52.046;4.800;2023-02-24T08:19:36;13.70;;;2.22;;
69789;SDS011;57064;52.046;4.800;2023-02-24T08:22:08;12.20;;;2.15;;
69789;SDS011;57064;52.046;4.800;2023-02-24T08:24:57;9.15;;;2.30;;
69789;SDS011;57064;52.046;4.800;2023-02-24T08:27:29;5.68;;;1.88;;
69789;SDS011;57064;52.046;4.800;2023-02-24T08:29:58;12.52;;;2.35;;
69789;SDS011;57064;52.046;4.800;2023-02-24T08:35:01;12.82;;;2.20;;
69789;SDS011;57064;52.046;4.800;2023-02-24T08:37:32;12.85;;;2.47;;
69789;SDS011;57064;52.046;4.800;2023-02-24T08:40:07;11.18;;;2.38;;
69789;SDS011;57064;52.046;4.800;2023-02-24T08:42:55;8.63;;;2.28;;
69789;SDS011;57064;52.046;4.800;2023-02-24T08:45:23;11.90;;;2.65;;
69789;SDS011;57064;52.046;4.800;2023-02-24T08:47:53;12.73;;;2.55;;
69789;SDS011;57064;52.046;4.800;2023-02-24T08:50:25;9.32;;;2.58;;
69789;SDS011;57064;52.046;4.800;2023-02-24T08:52:58;7.30;;;2.58;;
69789;SDS011;57064;52.046;4.800;2023-02-24T08:55:25;5.72;;;2.13;;
69789;SDS011;57064;52.046;4.800;2023-02-24T08:57:57;12.45;;;2.90;;
69789;SDS011;57064;52.046;4.800;2023-02-24T09:00:26;10.20;;;3.15;;
69789;SDS011;57064;52.046;4.800;2023-02-24T09:03:13;10.30;;;2.33;;
69789;SDS011;57064;52.046;4.800;2023-02-24T09:05:56;9.40;;;2.20;;
69789;SDS011;57064;52.046;4.800;2023-02-24T09:08:28;9.18;;;1.85;;
69789;SDS011;57064;52.046;4.800;2023-02-24T09:11:00;12.73;;;2.67;;
69789;SDS011;57064;52.046;4.800;2023-02-24T09:13:32;9.13;;;2.85;;
69789;SDS011;57064;52.046;4.800;2023-02-24T09:16:07;15.55;;;2.47;;
69789;SDS011;57064;52.046;4.800;2023-02-24T09:18:40;9.07;;;1.48;;
69789;SDS011;57064;52.046;4.800;2023-02-24T09:21:15;7.70;;;2.13;;
69789;SDS011;57064;52.046;4.800;2023-02-24T09:24:00;17.42;;;4.95;;
69789;SDS011;57064;52.046;4.800;2023-02-24T09:26:32;7.38;;;1.75;;
69789;SDS011;57064;52.046;4.800;2023-02-24T09:29:07;9.85;;;2.70;;
69789;SDS011;57064;52.046;4.800;2023-02-24T09:31:54;9.68;;;2.30;;
69789;SDS011;57064;52.046;4.800;2023-02-24T09:34:29;15.23;;;3.22;;
69789;SDS011;57064;52.046;4.800;2023-02-24T09:37:02;17.15;;;2.47;;
69789;SDS011;57064;52.046;4.800;2023-02-24T09:39:30;7.00;;;2.42;;
69789;SDS011;57064;52.046;4.800;2023-02-24T09:42:18;3.20;;;1.58;;
69789;SDS011;57064;52.046;4.800;2023-02-24T09:44:46;8.02;;;2.20;;
69789;SDS011;57064;52.046;4.800;2023-02-24T09:52:41;12.02;;;2.50;;
69789;SDS011;57064;52.046;4.800;2023-02-24T10:01:13;17.27;;;3.92;;
69789;SDS011;57064;52.046;4.800;2023-02-24T10:06:39;15.20;;;4.25;;
69789;SDS011;57064;52.046;4.800;2023-02-24T10:12:13;21.05;;;3.55;;
69789;SDS011;57064;52.046;4.800;2023-02-24T10:14:49;13.32;;;3.20;;
69789;SDS011;57064;52.046;4.800;2023-02-24T10:17:40;12.38;;;3.25;;
69789;SDS011;57064;52.046;4.800;2023-02-24T10:20:18;12.02;;;3.60;;
69789;SDS011;57064;52.046;4.800;2023-02-24T10:23:08;10.57;;;2.92;;
69789;SDS011;57064;52.046;4.800;2023-02-24T10:31:56;12.38;;;4.18;;
69789;SDS011;57064;52.046;4.800;2023-02-24T10:34:40;15.85;;;5.82;;
69789;SDS011;57064;52.046;4.800;2023-02-24T10:37:15;15.32;;;7.78;;
69789;SDS011;57064;52.046;4.800;2023-02-24T10:39:47;17.65;;;6.25;;
69789;SDS011;57064;52.046;4.800;2023-02-24T10:42:30;18.65;;;7.60;;
69789;SDS011;57064;52.046;4.800;2023-02-24T10:47:56;16.98;;;8.52;;
69789;SDS011;57064;52.046;4.800;2023-02-24T10:50:27;23.55;;;10.68;;
69789;SDS011;57064;52.046;4.800;2023-02-24T10:53:02;19.00;;;8.32;;
69789;SDS011;57064;52.046;4.800;2023-02-24T11:01:10;18.30;;;10.13;;
69789;SDS011;57064;52.046;4.800;2023-02-24T11:03:54;22.85;;;11.15;;
69789;SDS011;57064;52.046;4.800;2023-02-24T11:06:37;16.52;;;7.90;;
69789;SDS011;57064;52.046;4.800;2023-02-24T11:09:17;22.63;;;10.48;;
69789;SDS011;57064;52.046;4.800;2023-02-24T11:12:04;23.30;;;13.10;;
69789;SDS011;57064;52.046;4.800;2023-02-24T11:15:23;24.58;;;9.60;;
69789;SDS011;57064;52.046;4.800;2023-02-24T11:18:29;24.63;;;9.93;;
69789;SDS011;57064;52.046;4.800;2023-02-24T11:21:00;19.80;;;7.80;;
69789;SDS011;57064;52.046;4.800;2023-02-24T11:23:36;21.45;;;12.05;;
69789;SDS011;57064;52.046;4.800;2023-02-24T11:26:10;23.38;;;9.35;;
69789;SDS011;57064;52.046;4.800;2023-02-24T11:37:40;28.70;;;12.38;;
69789;SDS011;57064;52.046;4.800;2023-02-24T11:40:18;29.85;;;11.10;;
69789;SDS011;57064;52.046;4.800;2023-02-24T11:42:54;26.20;;;11.80;;
69789;SDS011;57064;52.046;4.800;2023-02-24T11:48:09;25.70;;;11.95;;
69789;SDS011;57064;52.046;4.800;2023-02-24T11:53:26;20.98;;;9.70;;
69789;SDS011;57064;52.046;4.800;2023-02-24T11:56:06;20.92;;;9.70;;
69789;SDS011;57064;52.046;4.800;2023-02-24T11:58:39;28.13;;;10.35;;
69789;SDS011;57064;52.046;4.800;2023-02-24T12:03:58;19.75;;;7.28;;
69789;SDS011;57064;52.046;4.800;2023-02-24T12:09:35;20.17;;;6.97;;
69789;SDS011;57064;52.046;4.800;2023-02-24T12:23:01;18.38;;;4.47;;
69789;SDS011;57064;52.046;4.800;2023-02-24T12:25:58;19.75;;;5.40;;
69789;SDS011;57064;52.046;4.800;2023-02-24T12:29:19;13.48;;;4.15;;
69789;SDS011;57064;52.046;4.800;2023-02-24T12:31:43;22.48;;;4.18;;
69789;SDS011;57064;52.046;4.800;2023-02-24T12:34:22;17.33;;;3.08;;
69789;SDS011;57064;52.046;4.800;2023-02-24T12:42:23;22.23;;;4.47;;
69789;SDS011;57064;52.046;4.800;2023-02-24T12:47:35;15.88;;;3.53;;
69789;SDS011;57064;52.046;4.800;2023-02-24T12:50:21;19.98;;;3.85;;
69789;SDS011;57064;52.046;4.800;2023-02-24T12:55:52;14.73;;;1.85;;
69789;SDS011;57064;52.046;4.800;2023-02-24T12:58:38;19.63;;;3.83;;
69789;SDS011;57064;52.046;4.800;2023-02-24T13:03:42;23.77;;;3.78;;
69789;SDS011;57064;52.046;4.800;2023-02-24T13:09:17;19.92;;;3.60;;
69789;SDS011;57064;52.046;4.800;2023-02-24T13:12:20;15.10;;;3.88;;
69789;SDS011;57064;52.046;4.800;2023-02-24T13:15:02;20.95;;;3.58;;
69789;SDS011;57064;52.046;4.800;2023-02-24T13:17:30;20.60;;;3.70;;
69789;SDS011;57064;52.046;4.800;2023-02-24T13:19:56;20.05;;;4.57;;
69789;SDS011;57064;52.046;4.800;2023-02-24T13:22:32;19.67;;;4.10;;
69789;SDS011;57064;52.046;4.800;2023-02-24T13:27:34;14.52;;;3.45;;
69789;SDS011;57064;52.046;4.800;2023-02-24T13:30:05;14.90;;;2.95;;
69789;SDS011;57064;52.046;4.800;2023-02-24T13:35:27;15.85;;;2.00;;
69789;SDS011;57064;52.046;4.800;2023-02-24T13:37:51;15.35;;;2.67;;
69789;SDS011;57064;52.046;4.800;2023-02-24T14:01:44;15.15;;;3.03;;
69789;SDS011;57064;52.046;4.800;2023-02-24T14:04:14;17.38;;;2.05;;
69789;SDS011;57064;52.046;4.800;2023-02-24T14:06:47;12.57;;;2.60;;
69789;SDS011;57064;52.046;4.800;2023-02-24T14:09:20;8.73;;;1.73;;
69789;SDS011;57064;52.046;4.800;2023-02-24T14:12:11;12.05;;;1.98;;
69789;SDS011;57064;52.046;4.800;2023-02-24T14:14:39;12.13;;;2.15;;
69789;SDS011;57064;52.046;4.800;2023-02-24T14:22:49;19.20;;;2.60;;
69789;SDS011;57064;52.046;4.800;2023-02-24T14:25:20;15.30;;;2.15;;
69789;SDS011;57064;52.046;4.800;2023-02-24T14:27:50;14.52;;;2.70;;
69789;SDS011;57064;52.046;4.800;2023-02-24T14:32:47;13.85;;;1.83;;
69789;SDS011;57064;52.046;4.800;2023-02-24T14:35:22;17.05;;;2.75;;
69789;SDS011;57064;52.046;4.800;2023-02-24T14:37:53;6.32;;;1.70;;
69789;SDS011;57064;52.046;4.800;2023-02-24T14:40:19;10.02;;;1.20;;
69789;SDS011;57064;52.046;4.800;2023-02-24T14:42:49;4.88;;;1.65;;
69789;SDS011;57064;52.046;4.800;2023-02-24T14:45:17;9.70;;;1.35;;
69789;SDS011;57064;52.046;4.800;2023-02-24T14:47:45;11.63;;;1.23;;
69789;SDS011;57064;52.046;4.800;2023-02-24T14:50:15;5.97;;;1.33;;
69789;SDS011;57064;52.046;4.800;2023-02-24T14:52:50;13.32;;;2.35;;
69789;SDS011;57064;52.046;4.800;2023-02-24T14:55:26;11.32;;;1.17;;
69789;SDS011;57064;52.046;4.800;2023-02-24T14:58:05;10.20;;;1.20;;
69789;SDS011;57064;52.046;4.800;2023-02-24T15:01:26;12.70;;;1.70;;
69789;SDS011;57064;52.046;4.800;2023-02-24T15:06:10;5.90;;;0.85;;
69789;SDS011;57064;52.046;4.800;2023-02-24T15:08:44;8.77;;;1.63;;
69789;SDS011;57064;52.046;4.800;2023-02-24T15:13:50;7.85;;;1.73;;
69789;SDS011;57064;52.046;4.800;2023-02-24T15:16:37;7.97;;;1.48;;
69789;SDS011;57064;52.046;4.800;2023-02-24T15:19:18;8.18;;;1.80;;
69789;SDS011;57064;52.046;4.800;2023-02-24T15:21:57;8.23;;;0.98;;
69789;SDS011;57064;52.046;4.800;2023-02-24T15:24:25;7.10;;;1.20;;
69789;SDS011;57064;52.046;4.800;2023-02-24T15:26:57;7.85;;;1.30;;
69789;SDS011;57064;52.046;4.800;2023-02-24T15:29:25;1.65;;;0.77;;
69789;SDS011;57064;52.046;4.800;2023-02-24T15:31:53;5.13;;;1.15;;
69789;SDS011;57064;52.046;4.800;2023-02-24T15:34:27;7.05;;;1.40;;
69789;SDS011;57064;52.046;4.800;2023-02-24T15:36:56;6.75;;;1.02;;
69789;SDS011;57064;52.046;4.800;2023-02-24T15:39:27;3.50;;;0.93;;
69789;SDS011;57064;52.046;4.800;2023-02-24T15:44:49;4.65;;;1.17;;
69789;SDS011;57064;52.046;4.800;2023-02-24T15:49:50;11.73;;;3.40;;
69789;SDS011;57064;52.046;4.800;2023-02-24T15:52:19;5.72;;;1.17;;
69789;SDS011;57064;52.046;4.800;2023-02-24T15:54:50;11.95;;;1.92;;
69789;SDS011;57064;52.046;4.800;2023-02-24T15:57:17;15.70;;;1.83;;
69789;SDS011;57064;52.046;4.800;2023-02-24T15:59:44;9.25;;;1.13;;
69789;SDS011;57064;52.046;4.800;2023-02-24T16:02:15;4.30;;;1.00;;
69789;SDS011;57064;52.046;4.800;2023-02-24T16:04:44;7.05;;;1.20;;
69789;SDS011;57064;52.046;4.800;2023-02-24T16:07:15;9.88;;;1.55;;
69789;SDS011;57064;52.046;4.800;2023-02-24T16:09:43;12.40;;;1.50;;
69789;SDS011;57064;52.046;4.800;2023-02-24T16:12:20;9.13;;;1.50;;
69789;SDS011;57064;52.046;4.800;2023-02-24T16:15:09;9.20;;;1.85;;
69789;SDS011;57064;52.046;4.800;2023-02-24T16:17:41;7.07;;;1.65;;
69789;SDS011;57064;52.046;4.800;2023-02-24T16:20:26;8.65;;;1.25;;
69789;SDS011;57064;52.046;4.800;2023-02-24T16:22:58;8.52;;;1.48;;
69789;SDS011;57064;52.046;4.800;2023-02-24T16:25:27;6.67;;;2.37;;
69789;SDS011;57064;52.046;4.800;2023-02-24T16:27:54;14.73;;;1.52;;
69789;SDS011;57064;52.046;4.800;2023-02-24T16:30:24;16.40;;;2.42;;
69789;SDS011;57064;52.046;4.800;2023-02-24T16:32:54;16.73;;;1.83;;
69789;SDS011;57064;52.046;4.800;2023-02-24T16:35:21;15.70;;;2.10;;
69789;SDS011;57064;52.046;4.800;2023-02-24T16:37:48;8.65;;;2.25;;
69789;SDS011;57064;52.046;4.800;2023-02-24T16:40:24;11.38;;;1.38;;
69789;SDS011;57064;52.046;4.800;2023-02-24T16:42:54;7.97;;;1.58;;
69789;SDS011;57064;52.046;4.800;2023-02-24T16:45:20;10.02;;;1.33;;
69789;SDS011;57064;52.046;4.800;2023-02-24T16:47:47;7.00;;;1.67;;
69789;SDS011;57064;52.046;4.800;2023-02-24T16:50:23;5.43;;;1.25;;
69789;SDS011;57064;52.046;4.800;2023-02-24T16:52:57;12.30;;;1.98;;
69789;SDS011;57064;52.046;4.800;2023-02-24T16:55:24;9.10;;;1.27;;
69789;SDS011;57064;52.046;4.800;2023-02-24T16:57:50;12.27;;;2.05;;
69789;SDS011;57064;52.046;4.800;2023-02-24T17:00:16;15.85;;;2.08;;
69789;SDS011;57064;52.046;4.800;2023-02-24T17:02:45;29.58;;;2.97;;
69789;SDS011;57064;52.046;4.800;2023-02-24T17:05:25;17.73;;;2.60;;
69789;SDS011;57064;52.046;4.800;2023-02-24T17:07:52;8.80;;;2.13;;
69789;SDS011;57064;52.046;4.800;2023-02-24T17:10:20;15.85;;;1.83;;
69789;SDS011;57064;52.046;4.800;2023-02-24T17:12:47;18.35;;;2.08;;
69789;SDS011;57064;52.046;4.800;2023-02-24T17:15:15;7.53;;;2.20;;
69789;SDS011;57064;52.046;4.800;2023-02-24T17:17:43;15.13;;;1.77;;
69789;SDS011;57064;52.046;4.800;2023-02-24T17:20:13;10.38;;;1.73;;
69789;SDS011;57064;52.046;4.800;2023-02-24T17:22:41;6.63;;;1.60;;
69789;SDS011;57064;52.046;4.800;2023-02-24T17:25:13;8.63;;;1.60;;
69789;SDS011;57064;52.046;4.800;2023-02-24T17:27:44;6.45;;;1.10;;
69789;SDS011;57064;52.046;4.800;2023-02-24T17:30:12;7.75;;;2.03;;
69789;SDS011;57064;52.046;4.800;2023-02-24T17:32:44;10.75;;;2.13;;
69789;SDS011;57064;52.046;4.800;2023-02-24T17:35:11;8.45;;;1.90;;
69789;SDS011;57064;52.046;4.800;2023-02-24T17:37:38;7.80;;;1.50;;
69789;SDS011;57064;52.046;4.800;2023-02-24T17:40:04;14.63;;;2.15;;
69789;SDS011;57064;52.046;4.800;2023-02-24T17:42:31;13.13;;;2.17;;
69789;SDS011;57064;52.046;4.800;2023-02-24T17:44:58;6.97;;;1.50;;
69789;SDS011;57064;52.046;4.800;2023-02-24T17:47:24;7.38;;;1.80;;
69789;SDS011;57064;52.046;4.800;2023-02-24T17:49:51;7.85;;;1.45;;
69789;SDS011;57064;52.046;4.800;2023-02-24T17:52:17;8.90;;;2.38;;
69789;SDS011;57064;52.046;4.800;2023-02-24T17:54:43;9.73;;;2.00;;
69789;SDS011;57064;52.046;4.800;2023-02-24T17:57:09;13.55;;;2.33;;
69789;SDS011;57064;52.046;4.800;2023-02-24T17:59:36;21.83;;;2.90;;
69789;SDS011;57064;52.046;4.800;2023-02-24T18:02:02;13.23;;;2.20;;
69789;SDS011;57064;52.046;4.800;2023-02-24T18:04:29;12.43;;;1.90;;